createdAt,value
2023-04-11T00:00:02.031Z,177.60
2023-04-11T00:01:02.068Z,173.70
2023-04-11T00:02:02.196Z,166.18
2023-04-11T00:03:02.431Z,169.70
2023-04-11T00:04:02.372Z,169.07
2023-04-11T00:05:02.296Z,162.46
2023-04-11T00:06:02.251Z,162.31
2023-04-11T00:07:02.304Z,178.01
2023-04-11T00:08:02.344Z,167.73
2023-04-11T00:09:02.353Z,178.42
2023-04-11T00:10:02.458Z,169.58
2023-04-11T00:11:02.420Z,167.76
2023-04-11T00:12:02.455Z,174.30
2023-04-11T00:13:02.498Z,168.61
2023-04-11T00:14:02.546Z,170.99
2023-04-11T00:15:02.586Z,178.53
2023-04-11T00:16:02.705Z,172.60
2023-04-11T00:17:02.654Z,169.78
2023-04-11T00:18:02.736Z,169.82
2023-04-11T00:19:02.728Z,181.08
2023-04-11T00:20:02.766Z,174.90
2023-04-11T00:21:02.811Z,168.61
2023-04-11T00:22:02.909Z,167.48
2023-04-11T00:23:02.875Z,169.16
2023-04-11T00:24:02.920Z,173.96
2023-04-11T00:25:02.949Z,169.22
2023-04-11T00:26:02.981Z,169.01
2023-04-11T00:27:03.010Z,173.80
2023-04-11T00:28:03.037Z,169.64
2023-04-11T00:29:03.074Z,176.91
2023-04-11T00:30:03.208Z,174.75
2023-04-11T00:31:03.151Z,170.67
2023-04-11T00:32:03.242Z,166.16
2023-04-11T00:33:03.220Z,170.24
2023-04-11T00:34:03.225Z,174.37
2023-04-11T00:35:03.267Z,165.68
2023-04-11T00:36:03.326Z,168.83
2023-04-11T00:37:03.381Z,171.54
2023-04-11T00:38:03.347Z,169.04
2023-04-11T00:39:03.385Z,168.70
2023-04-11T00:40:03.417Z,165.78
2023-04-11T00:41:03.433Z,170.17
2023-04-11T00:42:03.495Z,176.85
2023-04-11T00:43:03.556Z,173.06
2023-04-11T00:44:03.714Z,173.42
2023-04-11T00:45:03.706Z,167.19
2023-04-11T00:46:03.834Z,173.57
2023-04-11T00:47:03.844Z,173.85
2023-04-11T00:48:03.905Z,167.55
2023-04-11T00:49:03.924Z,170.36
2023-04-11T00:50:03.952Z,170.66
2023-04-11T00:51:03.938Z,172.57
2023-04-11T00:52:03.985Z,175.52
2023-04-11T00:53:04.001Z,173.08
2023-04-11T00:54:04.029Z,167.79
2023-04-11T00:55:04.068Z,173.55
2023-04-11T00:56:04.077Z,169.71
2023-04-11T00:57:04.180Z,169.63
2023-04-11T00:58:04.134Z,170.73
2023-04-11T00:59:04.168Z,161.01
2023-04-11T01:00:04.212Z,163.69
2023-04-11T01:01:04.243Z,172.13
2023-04-11T01:02:04.373Z,163.73
2023-04-11T01:03:04.355Z,172.89
2023-04-11T01:04:04.379Z,168.62
2023-04-11T01:05:04.326Z,166.72
2023-04-11T01:06:04.353Z,169.74
2023-04-11T01:07:04.414Z,172.86
2023-04-11T01:08:04.419Z,177.47
2023-04-11T01:09:04.442Z,165.50
2023-04-11T01:10:04.480Z,162.84
2023-04-11T01:11:04.477Z,174.38
2023-04-11T01:12:04.500Z,165.44
2023-04-11T01:13:04.531Z,165.36
2023-04-11T01:14:04.560Z,172.28
2023-04-11T01:15:04.577Z,165.29
2023-04-11T01:16:04.600Z,168.39
2023-04-11T01:17:04.710Z,166.38
2023-04-11T01:18:04.676Z,165.20
2023-04-11T01:19:04.655Z,165.80
2023-04-11T01:20:04.688Z,161.09
2023-04-11T01:21:04.700Z,171.15
2023-04-11T01:22:04.748Z,171.41
2023-04-11T01:23:04.750Z,166.90
2023-04-11T01:24:04.787Z,165.59
2023-04-11T01:25:04.859Z,171.40
2023-04-11T01:26:04.832Z,167.22
2023-04-11T01:27:04.861Z,172.53
2023-04-11T01:28:04.872Z,166.85
2023-04-11T01:29:04.903Z,170.12
2023-04-11T01:30:04.958Z,162.84
2023-04-11T01:31:04.944Z,167.13
2023-04-11T01:32:04.964Z,163.62
2023-04-11T01:33:05.076Z,165.89
2023-04-11T01:34:05.015Z,162.98
2023-04-11T01:35:05.038Z,163.39
2023-04-11T01:36:05.105Z,172.13
2023-04-11T01:37:05.070Z,174.02
2023-04-11T01:38:05.092Z,166.72
2023-04-11T01:39:05.111Z,168.85
2023-04-11T01:40:05.137Z,168.89
2023-04-11T01:41:05.147Z,167.98
2023-04-11T01:42:05.191Z,162.04
2023-04-11T01:43:05.193Z,166.29
2023-04-11T01:44:05.221Z,163.31
2023-04-11T01:45:05.234Z,163.80
2023-04-11T01:46:05.253Z,163.66
2023-04-11T01:47:05.274Z,173.70
2023-04-11T01:48:05.348Z,164.38
2023-04-11T01:49:05.404Z,163.94
2023-04-11T01:50:05.319Z,166.64
2023-04-11T01:51:05.344Z,165.86
2023-04-11T01:52:05.356Z,166.64
2023-04-11T01:53:05.383Z,171.83
2023-04-11T01:54:05.399Z,164.05
2023-04-11T01:55:05.418Z,168.21
2023-04-11T01:56:05.434Z,165.38
2023-04-11T01:57:05.450Z,165.21
2023-04-11T01:58:05.463Z,167.22
2023-04-11T01:59:05.478Z,169.95
2023-04-11T02:00:05.499Z,164.64
2023-04-11T02:01:05.566Z,165.16
2023-04-11T02:02:05.621Z,165.39
2023-04-11T02:03:05.797Z,166.60
2023-04-11T02:04:05.735Z,163.91
2023-04-11T02:05:05.567Z,167.37
2023-04-11T02:06:05.563Z,167.28
2023-04-11T02:07:05.584Z,167.35
2023-04-11T02:08:05.624Z,166.62
2023-04-11T02:09:05.645Z,165.08
2023-04-11T02:10:05.645Z,167.57
2023-04-11T02:11:05.664Z,166.83
2023-04-11T02:12:05.682Z,169.87
2023-04-11T02:13:05.712Z,162.80
2023-04-11T02:14:05.738Z,166.97
2023-04-11T02:15:05.765Z,165.71
2023-04-11T02:16:05.844Z,172.03
2023-04-11T02:17:05.819Z,167.44
2023-04-11T02:18:05.904Z,166.89
2023-04-11T02:19:05.885Z,169.30
2023-04-11T02:20:05.903Z,164.52
2023-04-11T02:21:05.931Z,168.10
2023-04-11T02:22:05.980Z,165.25
2023-04-11T02:23:06.027Z,170.91
2023-04-11T02:24:06.051Z,167.22
2023-04-11T02:25:06.095Z,167.53
2023-04-11T02:26:06.108Z,167.32
2023-04-11T02:27:06.136Z,164.59
2023-04-11T02:28:08.102Z,165.64
2023-04-11T02:29:06.145Z,170.75
2023-04-11T02:30:06.209Z,167.70
2023-04-11T02:31:06.239Z,167.38
2023-04-11T02:32:06.347Z,165.18
2023-04-11T02:33:06.272Z,164.65
2023-04-11T02:34:06.230Z,169.47
2023-04-11T02:35:06.276Z,159.66
2023-04-11T02:36:06.337Z,162.27
2023-04-11T02:37:06.328Z,166.74
2023-04-11T02:38:06.331Z,163.38
2023-04-11T02:39:06.381Z,167.61
2023-04-11T02:40:06.407Z,171.46
2023-04-11T02:41:06.423Z,167.40
2023-04-11T02:42:06.417Z,168.56
2023-04-11T02:43:06.445Z,170.26
2023-04-11T02:44:06.480Z,164.75
2023-04-11T02:45:06.495Z,167.58
2023-04-11T02:46:12.675Z,167.30
2023-04-11T02:47:07.555Z,167.59
2023-04-11T02:48:06.610Z,167.81
2023-04-11T02:49:06.554Z,167.77
2023-04-11T02:50:06.550Z,168.83
2023-04-11T02:51:06.576Z,164.94
2023-04-11T02:52:06.594Z,168.33
2023-04-11T02:53:06.604Z,166.01
2023-04-11T02:54:06.621Z,171.22
2023-04-11T02:55:06.644Z,168.40
2023-04-11T02:56:06.659Z,167.43
2023-04-11T02:57:06.678Z,166.61
2023-04-11T02:58:06.676Z,166.59
2023-04-11T02:59:06.736Z,166.44
2023-04-11T03:00:06.720Z,168.59
2023-04-11T03:01:06.733Z,171.42
2023-04-11T03:02:06.859Z,169.39
2023-04-11T03:03:06.982Z,169.18
2023-04-11T03:04:06.962Z,169.43
2023-04-11T03:05:07.001Z,169.97
2023-04-11T03:06:07.096Z,167.91
2023-04-11T03:07:07.170Z,165.43
2023-04-11T03:08:07.240Z,167.87
2023-04-11T03:09:07.311Z,166.13
2023-04-11T03:10:07.372Z,168.00
2023-04-11T03:11:07.408Z,168.17
2023-04-11T03:12:07.432Z,164.41
2023-04-11T03:13:07.453Z,167.65
2023-04-11T03:14:07.484Z,166.55
2023-04-11T03:15:07.496Z,167.73
2023-04-11T03:16:07.589Z,165.51
2023-04-11T03:17:07.549Z,170.48
2023-04-11T03:18:07.585Z,164.05
2023-04-11T03:19:07.598Z,167.68
2023-04-11T03:20:07.619Z,164.67
2023-04-11T03:21:07.625Z,168.50
2023-04-11T03:22:07.649Z,165.55
2023-04-11T03:23:07.693Z,164.94
2023-04-11T03:24:07.720Z,163.77
2023-04-11T03:25:07.775Z,163.68
2023-04-11T03:26:07.782Z,165.95
2023-04-11T03:27:07.820Z,166.34
2023-04-11T03:28:07.835Z,168.60
2023-04-11T03:29:07.851Z,168.87
2023-04-11T03:30:07.870Z,167.03
2023-04-11T03:31:07.969Z,167.42
2023-04-11T03:32:07.927Z,164.03
2023-04-11T03:33:07.958Z,167.94
2023-04-11T03:34:07.984Z,166.90
2023-04-11T03:35:08.031Z,169.24
2023-04-11T03:36:08.107Z,167.63
2023-04-11T03:37:08.111Z,166.90
2023-04-11T03:38:08.140Z,169.69
2023-04-11T03:39:08.198Z,168.41
2023-04-11T03:40:08.200Z,168.63
2023-04-11T03:41:08.212Z,168.17
2023-04-11T03:42:08.245Z,167.97
2023-04-11T03:43:08.288Z,167.42
2023-04-11T03:44:08.341Z,165.93
2023-04-11T03:45:08.376Z,167.80
2023-04-11T03:46:08.456Z,171.07
2023-04-11T03:47:08.478Z,169.71
2023-04-11T03:48:08.628Z,166.38
2023-04-11T03:49:08.619Z,170.64
2023-04-11T03:50:08.677Z,166.76
2023-04-11T03:51:08.720Z,169.38
2023-04-11T03:52:08.775Z,172.10
2023-04-11T03:53:08.864Z,170.82
2023-04-11T03:54:08.906Z,170.52
2023-04-11T03:55:08.959Z,167.24
2023-04-11T03:56:08.991Z,170.29
2023-04-11T03:57:09.029Z,168.17
2023-04-11T03:58:09.073Z,167.57
2023-04-11T03:59:09.088Z,168.10
2023-04-11T04:00:09.173Z,165.55
2023-04-11T04:01:09.238Z,172.58
2023-04-11T04:02:09.932Z,170.08
2023-04-11T04:03:09.502Z,168.74
2023-04-11T04:04:09.605Z,168.31
2023-04-11T04:05:09.468Z,166.37
2023-04-11T04:06:09.462Z,167.68
2023-04-11T04:07:09.474Z,169.44
2023-04-11T04:08:09.541Z,168.01
2023-04-11T04:09:09.575Z,169.65
2023-04-11T04:10:09.652Z,168.47
2023-04-11T04:11:09.688Z,168.00
2023-04-11T04:12:09.723Z,169.36
2023-04-11T04:13:09.772Z,166.51
2023-04-11T04:14:09.806Z,167.78
2023-04-11T04:15:09.835Z,170.57
2023-04-11T04:16:09.883Z,167.86
2023-04-11T04:17:09.880Z,167.01
2023-04-11T04:18:09.945Z,167.95
2023-04-11T04:19:09.981Z,170.76
2023-04-11T04:20:10.047Z,170.69
2023-04-11T04:21:10.103Z,170.00
2023-04-11T04:22:10.170Z,168.92
2023-04-11T04:23:10.239Z,168.87
2023-04-11T04:24:10.288Z,168.46
2023-04-11T04:25:10.351Z,171.62
2023-04-11T04:26:10.440Z,166.92
2023-04-11T04:27:10.522Z,169.08
2023-04-11T04:28:10.619Z,172.02
2023-04-11T04:29:10.674Z,166.92
2023-04-11T04:30:10.739Z,166.81
2023-04-11T04:31:10.800Z,169.62
2023-04-11T04:32:11.111Z,167.71
2023-04-11T04:33:10.986Z,168.11
2023-04-11T04:34:11.002Z,169.69
2023-04-11T04:35:10.999Z,170.71
2023-04-11T04:36:11.155Z,169.86
2023-04-11T04:37:11.097Z,167.88
2023-04-11T04:38:11.172Z,169.29
2023-04-11T04:39:11.257Z,172.38
2023-04-11T04:40:11.325Z,170.50
2023-04-11T04:41:11.369Z,169.56
2023-04-11T04:42:11.424Z,168.69
2023-04-11T04:43:11.563Z,167.44
2023-04-11T04:44:11.578Z,169.92
2023-04-11T04:45:11.658Z,166.00
2023-04-11T04:46:11.788Z,170.02
2023-04-11T04:47:11.831Z,169.91
2023-04-11T04:48:11.907Z,166.94
2023-04-11T04:49:12.006Z,169.78
2023-04-11T04:50:12.088Z,169.28
2023-04-11T04:51:12.174Z,169.40
2023-04-11T04:52:12.262Z,172.15
2023-04-11T04:53:12.357Z,170.00
2023-04-11T04:54:12.450Z,172.29
2023-04-11T04:55:12.536Z,169.07
2023-04-11T04:56:12.619Z,168.29
2023-04-11T04:57:12.721Z,169.10
2023-04-11T04:58:12.795Z,168.15
2023-04-11T04:59:12.861Z,169.23
2023-04-11T05:00:12.946Z,172.09
2023-04-11T05:01:13.070Z,170.46
2023-04-11T05:02:13.227Z,169.29
2023-04-11T05:03:13.345Z,170.84
2023-04-11T05:04:13.569Z,169.54
2023-04-11T05:05:13.352Z,169.18
2023-04-11T05:06:13.424Z,168.74
2023-04-11T05:07:13.494Z,168.71
2023-04-11T05:08:13.551Z,171.11
2023-04-11T05:09:13.615Z,168.76
2023-04-11T05:10:13.702Z,169.58
2023-04-11T05:11:13.815Z,171.63
2023-04-11T05:12:13.911Z,169.41
2023-04-11T05:13:13.934Z,169.19
2023-04-11T05:14:14.013Z,172.29
2023-04-11T05:15:14.092Z,169.95
2023-04-11T05:16:14.199Z,172.11
2023-04-11T05:17:14.229Z,170.01
2023-04-11T05:18:14.316Z,169.11
2023-04-11T05:19:14.397Z,171.70
2023-04-11T05:20:14.471Z,168.72
2023-04-11T05:21:14.540Z,172.66
2023-04-11T05:22:14.613Z,170.39
2023-04-11T05:23:14.701Z,171.56
2023-04-11T05:24:14.772Z,181.42
2023-04-11T05:25:14.840Z,186.14
2023-04-11T05:26:14.927Z,196.67
2023-04-11T05:27:15.008Z,215.03
2023-04-11T05:28:15.088Z,225.02
2023-04-11T05:29:15.143Z,230.56
2023-04-11T05:30:15.239Z,233.09
2023-04-11T05:31:15.348Z,248.76
2023-04-11T05:32:15.277Z,250.00
2023-04-11T05:33:15.327Z,250.00
2023-04-11T05:34:15.359Z,249.52
2023-04-11T05:35:15.540Z,249.85
2023-04-11T05:36:15.487Z,249.36
2023-04-11T05:37:16.707Z,249.77
2023-04-11T05:38:15.422Z,250.00
2023-04-11T05:39:18.294Z,282.36
2023-04-11T05:40:16.291Z,277.14
2023-04-11T05:41:15.424Z,258.47
2023-04-11T05:42:15.430Z,242.47
2023-04-11T05:43:15.423Z,248.14
2023-04-11T05:44:15.404Z,249.80
2023-04-11T05:45:15.402Z,247.18
2023-04-11T05:46:15.424Z,249.26
2023-04-11T05:47:15.419Z,250.00
2023-04-11T05:48:16.164Z,250.77
2023-04-11T05:49:15.363Z,250.00
2023-04-11T05:50:15.352Z,249.73
2023-04-11T05:51:15.360Z,250.00
2023-04-11T05:52:15.337Z,249.41
2023-04-11T05:53:15.332Z,248.50
2023-04-11T05:54:15.335Z,250.00
2023-04-11T05:55:15.323Z,250.00
2023-04-11T05:56:15.308Z,248.59
2023-04-11T05:57:15.296Z,250.00
2023-04-11T05:58:15.284Z,248.87
2023-04-11T05:59:15.283Z,250.24
2023-04-11T06:00:15.294Z,249.92
2023-04-11T06:01:15.257Z,250.00
2023-04-11T06:02:15.359Z,249.77
2023-04-11T06:03:15.331Z,250.02
2023-04-11T06:04:15.312Z,249.25
2023-04-11T06:05:15.278Z,248.59
2023-04-11T06:06:15.217Z,249.74
2023-04-11T06:07:15.206Z,248.40
2023-04-11T06:08:15.192Z,249.38
2023-04-11T06:09:15.207Z,249.16
2023-04-11T06:10:15.188Z,248.95
2023-04-11T06:11:15.174Z,250.00
2023-04-11T06:12:15.168Z,249.90
2023-04-11T06:13:15.166Z,249.98
2023-04-11T06:14:15.231Z,249.48
2023-04-11T06:15:15.266Z,249.42
2023-04-11T06:16:15.327Z,250.00
2023-04-11T06:17:15.344Z,250.00
2023-04-11T06:18:15.400Z,249.90
2023-04-11T06:19:15.440Z,250.00
2023-04-11T06:20:15.510Z,247.52
2023-04-11T06:21:15.515Z,244.60
2023-04-11T06:22:15.599Z,248.41
2023-04-11T06:23:15.670Z,248.20
2023-04-11T06:24:15.652Z,248.01
2023-04-11T06:25:16.316Z,246.97
2023-04-11T06:26:15.738Z,247.94
2023-04-11T06:27:15.799Z,248.46
2023-04-11T06:28:15.854Z,248.54
2023-04-11T06:29:15.897Z,248.23
2023-04-11T06:30:16.888Z,248.26
2023-04-11T06:31:15.930Z,248.38
2023-04-11T06:32:15.868Z,247.75
2023-04-11T06:33:15.885Z,248.64
2023-04-11T06:34:15.860Z,247.41
2023-04-11T06:35:15.855Z,247.38
2023-04-11T06:36:15.918Z,246.77
2023-04-11T06:37:15.850Z,246.74
2023-04-11T06:38:15.850Z,246.51
2023-04-11T06:39:15.849Z,245.25
2023-04-11T06:40:15.840Z,245.30
2023-04-11T06:41:15.835Z,244.14
2023-04-11T06:42:15.825Z,244.51
2023-04-11T06:43:15.820Z,243.16
2023-04-11T06:44:16.960Z,243.21
2023-04-11T06:45:15.802Z,242.75
2023-04-11T06:46:15.819Z,241.34
2023-04-11T06:47:15.799Z,240.95
2023-04-11T06:48:15.794Z,241.68
2023-04-11T06:49:15.786Z,241.45
2023-04-11T06:50:15.773Z,240.83
2023-04-11T06:51:15.780Z,240.45
2023-04-11T06:52:15.762Z,240.45
2023-04-11T06:53:15.757Z,241.03
2023-04-11T06:54:15.755Z,239.26
2023-04-11T06:55:15.801Z,239.50
2023-04-11T06:56:15.733Z,238.66
2023-04-11T06:57:15.724Z,238.88
2023-04-11T06:58:15.707Z,238.05
2023-04-11T06:59:15.730Z,238.29
2023-04-11T07:00:15.707Z,237.67
2023-04-11T07:01:15.752Z,236.52
2023-04-11T07:02:15.766Z,238.12
2023-04-11T07:03:15.770Z,236.02
2023-04-11T07:04:15.753Z,236.23
2023-04-11T07:05:15.706Z,235.92
2023-04-11T07:06:15.698Z,235.41
2023-04-11T07:07:15.695Z,235.30
2023-04-11T07:08:15.694Z,235.98
2023-04-11T07:09:15.679Z,233.23
2023-04-11T07:10:15.714Z,235.30
2023-04-11T07:11:15.744Z,233.65
2023-04-11T07:12:16.322Z,234.82
2023-04-11T07:13:15.806Z,232.90
2023-04-11T07:14:15.819Z,233.56
2023-04-11T07:15:15.851Z,234.06
2023-04-11T07:16:16.062Z,232.80
2023-04-11T07:17:15.901Z,231.50
2023-04-11T07:18:15.958Z,231.35
2023-04-11T07:19:15.974Z,230.41
2023-04-11T07:20:16.002Z,230.95
2023-04-11T07:21:16.031Z,230.29
2023-04-11T07:22:16.066Z,230.91
2023-04-11T07:23:16.116Z,231.81
2023-04-11T07:24:16.147Z,228.03
2023-04-11T07:25:16.176Z,206.27
2023-04-11T07:26:16.210Z,194.87
2023-04-11T07:27:16.255Z,172.65
2023-04-11T07:28:16.285Z,151.95
2023-04-11T07:29:16.342Z,136.53
2023-04-11T07:30:16.411Z,128.50
2023-04-11T07:31:16.469Z,116.86
2023-04-11T07:32:16.523Z,110.35
2023-04-11T07:33:16.591Z,106.25
2023-04-11T07:34:16.649Z,92.72
2023-04-11T07:35:16.711Z,89.05
2023-04-11T07:36:16.794Z,81.68
2023-04-11T07:37:16.823Z,72.11
2023-04-11T07:38:16.889Z,75.19
2023-04-11T07:39:16.947Z,76.98
2023-04-11T07:40:16.994Z,75.72
2023-04-11T07:41:17.053Z,73.26
2023-04-11T07:42:17.052Z,71.40
2023-04-11T07:43:17.072Z,67.71
2023-04-11T07:44:17.102Z,71.45
2023-04-11T07:45:17.108Z,83.89
2023-04-11T07:46:17.157Z,84.36
2023-04-11T07:47:17.124Z,87.38
2023-04-11T07:48:17.131Z,84.32
2023-04-11T07:49:17.142Z,79.67
2023-04-11T07:50:17.126Z,89.17
2023-04-11T07:51:17.170Z,93.25
2023-04-11T07:52:17.125Z,97.37
2023-04-11T07:53:17.146Z,95.42
2023-04-11T07:54:17.123Z,93.96
2023-04-11T07:55:17.168Z,94.27
2023-04-11T07:56:17.145Z,95.16
2023-04-11T07:57:17.144Z,96.63
2023-04-11T07:58:17.178Z,101.19
2023-04-11T07:59:17.186Z,102.38
2023-04-11T08:00:17.218Z,101.84
2023-04-11T08:01:17.249Z,106.27
2023-04-11T08:02:17.383Z,107.42
2023-04-11T08:03:17.583Z,112.56
2023-04-11T08:04:17.481Z,111.32
2023-04-11T08:05:17.483Z,114.59
2023-04-11T08:06:17.427Z,108.43
2023-04-11T08:07:17.436Z,103.07
2023-04-11T08:08:17.446Z,105.58
2023-04-11T08:09:17.459Z,104.30
2023-04-11T08:10:17.519Z,103.63
2023-04-11T08:11:17.570Z,106.23
2023-04-11T08:12:17.569Z,114.31
2023-04-11T08:13:17.575Z,116.25
2023-04-11T08:14:17.649Z,122.21
2023-04-11T08:15:17.625Z,125.92
2023-04-11T08:16:17.691Z,131.03
2023-04-11T08:17:27.837Z,134.70
2023-04-11T08:18:18.709Z,134.89
2023-04-11T08:19:17.672Z,135.90
2023-04-11T08:20:17.653Z,138.83
2023-04-11T08:21:17.659Z,144.43
2023-04-11T08:22:17.635Z,152.82
2023-04-11T08:23:17.619Z,159.20
2023-04-11T08:24:17.858Z,162.12
2023-04-11T08:25:17.617Z,171.81
2023-04-11T08:26:17.608Z,170.83
2023-04-11T08:27:17.650Z,174.67
2023-04-11T08:28:17.711Z,178.72
2023-04-11T08:29:17.752Z,184.42
2023-04-11T08:30:17.818Z,187.70
2023-04-11T08:31:18.121Z,191.46
2023-04-11T08:32:18.167Z,191.98
2023-04-11T08:33:17.941Z,194.93
2023-04-11T08:34:17.975Z,197.95
2023-04-11T08:35:18.017Z,202.19
2023-04-11T08:36:18.102Z,202.92
2023-04-11T08:37:18.100Z,204.88
2023-04-11T08:38:18.220Z,209.68
2023-04-11T08:39:18.176Z,211.23
2023-04-11T08:40:18.211Z,211.81
2023-04-11T08:41:18.233Z,215.42
2023-04-11T08:42:18.259Z,218.84
2023-04-11T08:43:18.310Z,219.72
2023-04-11T08:44:18.324Z,221.99
2023-04-11T08:45:18.361Z,225.79
2023-04-11T08:46:18.421Z,229.45
2023-04-11T08:47:18.421Z,231.53
2023-04-11T08:48:19.382Z,231.66
2023-04-11T08:49:18.345Z,232.43
2023-04-11T08:50:18.337Z,234.05
2023-04-11T08:51:18.361Z,237.97
2023-04-11T08:52:18.265Z,242.51
2023-04-11T08:53:18.245Z,246.34
2023-04-11T08:54:18.227Z,245.71
2023-04-11T08:55:18.203Z,248.92
2023-04-11T08:56:18.172Z,250.00
2023-04-11T08:57:18.857Z,249.75
2023-04-11T08:58:18.128Z,250.00
2023-04-11T08:59:18.099Z,249.90
2023-04-11T09:00:18.110Z,248.75
2023-04-11T09:01:18.144Z,249.33
2023-04-11T09:02:18.361Z,250.00
2023-04-11T09:03:18.305Z,250.00
2023-04-11T09:04:18.201Z,249.05
2023-04-11T09:05:18.190Z,249.57
2023-04-11T09:06:18.198Z,250.00
2023-04-11T09:07:18.211Z,250.00
2023-04-11T09:08:18.230Z,249.72
2023-04-11T09:09:18.235Z,248.69
2023-04-11T09:10:18.242Z,250.00
2023-04-11T09:11:18.245Z,249.25
2023-04-11T09:12:18.255Z,249.35
2023-04-11T09:13:18.260Z,250.00
2023-04-11T09:14:18.317Z,250.00
2023-04-11T09:15:18.290Z,250.23
2023-04-11T09:16:18.348Z,250.00
2023-04-11T09:17:18.313Z,249.59
2023-04-11T09:18:18.314Z,250.00
2023-04-11T09:19:18.335Z,249.90
2023-04-11T09:20:18.351Z,249.79
2023-04-11T09:21:18.874Z,249.91
2023-04-11T09:22:18.381Z,249.32
2023-04-11T09:23:18.403Z,249.73
2023-04-11T09:24:18.422Z,249.41
2023-04-11T09:25:18.468Z,248.85
2023-04-11T09:26:18.465Z,249.03
2023-04-11T09:27:18.480Z,249.77
2023-04-11T09:28:18.492Z,248.07
2023-04-11T09:29:18.507Z,249.55
2023-04-11T09:30:18.528Z,249.55
2023-04-11T09:31:18.603Z,249.28
2023-04-11T09:32:18.556Z,249.87
2023-04-11T09:33:18.557Z,250.00
2023-04-11T09:34:18.571Z,249.70
2023-04-11T09:35:18.608Z,249.74
2023-04-11T09:36:18.601Z,250.10
2023-04-11T09:37:18.601Z,250.00
2023-04-11T09:38:18.619Z,249.88
2023-04-11T09:39:18.615Z,249.09
2023-04-11T09:40:18.621Z,249.46
2023-04-11T09:41:18.644Z,250.00
2023-04-11T09:42:18.652Z,249.43
2023-04-11T09:43:20.329Z,250.04
2023-04-11T09:44:19.368Z,248.69
2023-04-11T09:45:18.717Z,250.00
2023-04-11T09:46:18.842Z,250.00
2023-04-11T09:47:18.715Z,248.54
2023-04-11T09:48:18.739Z,250.00
2023-04-11T09:49:18.760Z,249.71
2023-04-11T09:50:18.772Z,249.74
2023-04-11T09:51:34.367Z,249.62
2023-04-11T09:52:19.724Z,249.67
2023-04-11T09:53:18.695Z,249.83
2023-04-11T09:54:18.663Z,250.75
2023-04-11T09:55:18.624Z,252.37
2023-04-11T09:56:18.595Z,255.92
2023-04-11T09:57:18.558Z,249.57
2023-04-11T09:58:18.529Z,248.95
2023-04-11T09:59:18.507Z,249.69
2023-04-11T10:00:18.466Z,248.01
2023-04-11T10:01:18.469Z,247.52
2023-04-11T10:02:18.460Z,249.58
2023-04-11T10:03:18.522Z,248.34
2023-04-11T10:04:18.361Z,247.80
2023-04-11T10:05:18.294Z,248.67
2023-04-11T10:06:18.281Z,250.00
2023-04-11T10:07:18.254Z,249.18
2023-04-11T10:08:18.208Z,247.89
2023-04-11T10:09:18.161Z,245.49
2023-04-11T10:10:18.122Z,248.45
2023-04-11T10:11:18.098Z,248.03
2023-04-11T10:12:18.057Z,246.75
2023-04-11T10:13:18.039Z,247.23
2023-04-11T10:14:18.050Z,247.18
2023-04-11T10:15:18.057Z,246.98
2023-04-11T10:16:18.089Z,246.45
2023-04-11T10:17:22.152Z,246.16
2023-04-11T10:18:19.061Z,246.20
2023-04-11T10:19:18.034Z,246.20
2023-04-11T10:20:18.010Z,245.58
2023-04-11T10:21:17.980Z,244.75
2023-04-11T10:22:17.956Z,245.54
2023-04-11T10:23:17.935Z,244.51
2023-04-11T10:24:18.809Z,245.16
2023-04-11T10:25:18.818Z,245.24
2023-04-11T10:26:17.873Z,245.38
2023-04-11T10:27:18.806Z,244.62
2023-04-11T10:28:17.835Z,245.06
2023-04-11T10:29:17.806Z,244.93
2023-04-11T10:30:17.781Z,244.57
2023-04-11T10:31:17.824Z,243.20
2023-04-11T10:32:17.736Z,242.74
2023-04-11T10:33:17.873Z,242.33
2023-04-11T10:34:17.684Z,241.22
2023-04-11T10:35:17.690Z,241.50
2023-04-11T10:36:17.685Z,240.19
2023-04-11T10:37:17.646Z,240.65
2023-04-11T10:38:17.618Z,240.42
2023-04-11T10:39:17.608Z,240.66
2023-04-11T10:40:18.398Z,239.27
2023-04-11T10:41:17.538Z,238.81
2023-04-11T10:42:18.412Z,238.66
2023-04-11T10:43:17.501Z,238.28
2023-04-11T10:44:17.487Z,238.25
2023-04-11T10:45:17.449Z,236.96
2023-04-11T10:46:17.448Z,237.38
2023-04-11T10:47:17.424Z,236.99
2023-04-11T10:48:17.373Z,236.94
2023-04-11T10:49:17.343Z,236.21
2023-04-11T10:50:17.328Z,236.08
2023-04-11T10:51:17.303Z,235.53
2023-04-11T10:52:17.360Z,235.78
2023-04-11T10:53:17.408Z,235.22
2023-04-11T10:54:17.450Z,234.55
2023-04-11T10:55:17.520Z,234.16
2023-04-11T10:56:17.571Z,234.33
2023-04-11T10:57:17.620Z,233.66
2023-04-11T10:58:17.669Z,233.33
2023-04-11T10:59:17.729Z,233.01
2023-04-11T11:00:17.775Z,233.63
2023-04-11T11:01:26.688Z,233.15
2023-04-11T11:02:18.900Z,233.18
2023-04-11T11:03:17.831Z,233.08
2023-04-11T11:04:17.978Z,232.01
2023-04-11T11:05:17.751Z,232.05
2023-04-11T11:06:17.739Z,231.15
2023-04-11T11:07:17.729Z,230.50
2023-04-11T11:08:17.720Z,231.42
2023-04-11T11:09:18.399Z,230.85
2023-04-11T11:10:17.734Z,229.50
2023-04-11T11:11:17.749Z,229.30
2023-04-11T11:12:17.805Z,229.48
2023-04-11T11:13:17.856Z,228.77
2023-04-11T11:14:17.877Z,228.96
2023-04-11T11:15:17.929Z,228.41
2023-04-11T11:16:17.999Z,228.09
2023-04-11T11:17:18.030Z,228.49
2023-04-11T11:18:18.073Z,227.89
2023-04-11T11:19:18.110Z,228.03
2023-04-11T11:20:18.202Z,226.63
2023-04-11T11:21:26.694Z,226.50
2023-04-11T11:22:19.225Z,226.56
2023-04-11T11:23:18.151Z,226.54
2023-04-11T11:24:18.147Z,225.46
2023-04-11T11:25:18.138Z,224.91
2023-04-11T11:26:18.125Z,225.40
2023-04-11T11:27:18.106Z,224.56
2023-04-11T11:28:18.095Z,224.34
2023-04-11T11:29:18.076Z,224.05
2023-04-11T11:30:18.081Z,223.94
2023-04-11T11:31:18.200Z,224.38
2023-04-11T11:32:18.188Z,222.96
2023-04-11T11:33:18.245Z,222.86
2023-04-11T11:35:18.278Z,223.15
2023-04-11T11:36:18.289Z,222.12
2023-04-11T11:37:18.271Z,221.41
2023-04-11T11:38:18.275Z,221.95
2023-04-11T11:39:19.485Z,220.90
2023-04-11T11:40:18.239Z,220.97
2023-04-11T11:41:18.237Z,220.86
2023-04-11T11:42:18.321Z,220.32
2023-04-11T11:43:18.270Z,221.12
2023-04-11T11:44:18.322Z,220.20
2023-04-11T11:45:18.371Z,220.33
2023-04-11T11:46:18.475Z,219.52
2023-04-11T11:47:18.505Z,218.84
2023-04-11T11:48:18.565Z,219.38
2023-04-11T11:49:18.633Z,218.34
2023-04-11T11:50:18.692Z,218.16
2023-04-11T11:51:18.752Z,218.18
2023-04-11T11:52:18.765Z,218.39
2023-04-11T11:53:18.782Z,216.33
2023-04-11T11:54:18.819Z,216.97
2023-04-11T11:55:18.876Z,217.07
2023-04-11T11:56:18.925Z,216.08
2023-04-11T11:57:18.929Z,215.72
2023-04-11T11:58:18.985Z,216.04
2023-04-11T11:59:19.014Z,215.97
2023-04-11T12:00:19.053Z,215.74
2023-04-11T12:01:19.097Z,215.51
2023-04-11T12:02:19.190Z,215.18
2023-04-11T12:03:19.328Z,214.90
2023-04-11T12:04:19.366Z,214.88
2023-04-11T12:05:19.234Z,214.45
2023-04-11T12:06:19.258Z,214.73
2023-04-11T12:07:19.294Z,214.02
2023-04-11T12:08:19.314Z,213.26
2023-04-11T12:09:19.344Z,213.76
2023-04-11T12:10:19.355Z,212.87
2023-04-11T12:11:19.341Z,213.13
2023-04-11T12:12:19.348Z,212.27
2023-04-11T12:13:19.340Z,212.08
2023-04-11T12:14:19.462Z,211.41
2023-04-11T12:15:19.399Z,211.58
2023-04-11T12:16:19.510Z,210.98
2023-04-11T12:17:19.542Z,211.49
2023-04-11T12:18:19.535Z,211.11
2023-04-11T12:19:19.598Z,210.55
2023-04-11T12:20:19.649Z,210.28
2023-04-11T12:21:19.701Z,210.68
2023-04-11T12:22:19.715Z,209.91
2023-04-11T12:23:19.748Z,209.05
2023-04-11T12:24:19.749Z,209.63
2023-04-11T12:25:19.751Z,208.75
2023-04-11T12:26:19.769Z,208.57
2023-04-11T12:27:19.793Z,208.89
2023-04-11T12:28:19.813Z,208.47
2023-04-11T12:29:19.819Z,208.88
2023-04-11T12:30:19.831Z,207.99